Time;durP1;ratioP1;P1;durP2;ratioP2;P2;SDS_P1;SDS_P2;PMS_P1;PMS_P2;Temp;Humidity;BMP_temperature;BMP_pressure;BME280_temperature;BME280_humidity;BME280_pressure;Samples;Min_cycle;Max_cycle;Signal;HPM_P1;HPM_P2
2022/04/30 00:00:37;;;;;;;2.57;2.37;;;16.80;63.30;;;;;;5037393;28;20463;-68
2022/04/30 00:03:06;;;;;;;2.93;2.70;;;16.80;63.30;;;;;;5037614;28;20427;-66
2022/04/30 00:05:34;;;;;;;3.40;3.10;;;16.80;63.10;;;;;;5036146;28;21012;-67
2022/04/30 00:08:05;;;;;;;4.17;2.70;;;16.80;63.10;;;;;;5037558;28;21031;-67
2022/04/30 00:10:37;;;;;;;3.77;3.47;;;16.80;63.10;;;;;;5027608;28;20476;-68
2022/04/30 00:13:10;;;;;;;2.30;2.17;;;16.80;63.20;;;;;;5022986;28;20523;-66
2022/04/30 00:15:38;;;;;;;2.63;2.43;;;16.80;63.50;;;;;;5037101;28;20550;-69
2022/04/30 00:18:08;;;;;;;4.30;2.90;;;16.80;63.60;;;;;;5037016;28;20818;-68
2022/04/30 00:20:37;;;;;;;3.00;2.80;;;16.80;63.20;;;;;;5037268;28;20818;-67
2022/04/30 00:23:05;;;;;;;3.20;2.90;;;16.80;63.50;;;;;;5037665;28;20481;-67
2022/04/30 00:25:34;;;;;;;3.17;2.87;;;16.80;63.40;;;;;;5027134;28;21022;-67
2022/04/30 00:28:02;;;;;;;2.70;2.50;;;16.80;63.50;;;;;;5018879;28;20911;-66
2022/04/30 00:30:31;;;;;;;2.57;2.37;;;16.80;63.50;;;;;;5035785;28;20463;-67
2022/04/30 00:32:59;;;;;;;2.90;2.70;;;16.80;63.30;;;;;;5033464;28;20421;-66
2022/04/30 00:35:27;;;;;;;2.50;2.30;;;16.80;63.30;;;;;;5028758;28;20499;-68
2022/04/30 00:37:55;;;;;;;3.10;2.73;;;16.80;63.50;;;;;;5014912;28;20421;-65
2022/04/30 00:40:23;;;;;;;3.07;2.77;;;16.80;63.20;;;;;;5025407;28;20480;-67
2022/04/30 00:42:51;;;;;;;3.20;3.00;;;16.80;63.10;;;;;;5014726;28;20425;-68
2022/04/30 00:45:20;;;;;;;2.63;2.43;;;16.80;63.10;;;;;;5032813;28;20517;-67
2022/04/30 00:47:50;;;;;;;2.97;2.77;;;16.80;63.20;;;;;;5034114;28;20926;-68
2022/04/30 00:50:21;;;;;;;3.07;2.87;;;16.80;63.30;;;;;;5018062;28;20465;-67
2022/04/30 00:52:53;;;;;;;2.73;2.50;;;16.80;63.40;;;;;;5032164;28;20960;-67
2022/04/30 00:55:23;;;;;;;2.43;1.90;;;16.80;63.30;;;;;;5025275;28;20489;-66
2022/04/30 00:57:55;;;;;;;2.47;2.37;;;16.80;63.40;;;;;;5031573;28;20780;-67
2022/04/30 01:00:25;;;;;;;2.73;2.53;;;16.70;63.50;;;;;;5033663;28;20468;-66
2022/04/30 01:03:12;;;;;;;2.90;2.70;;;16.70;63.50;;;;;;5032739;28;20530;-68
2022/04/30 01:05:51;;;;;;;2.63;2.17;;;16.70;63.00;;;;;;5015547;28;20476;-67
2022/04/30 01:08:20;;;;;;;2.67;2.47;;;16.70;63.10;;;;;;5032895;28;20439;-67
2022/04/30 01:10:49;;;;;;;2.70;2.50;;;16.70;63.30;;;;;;5021769;28;20461;-66
2022/04/30 01:13:18;;;;;;;2.70;2.30;;;16.70;63.30;;;;;;5016947;28;20433;-68
2022/04/30 01:15:46;;;;;;;2.83;2.60;;;16.70;63.60;;;;;;5013423;28;20548;-67
2022/04/30 01:18:16;;;;;;;3.80;2.60;;;16.70;63.40;;;;;;5025504;28;20441;-68
2022/04/30 01:20:47;;;;;;;2.73;2.53;;;16.70;63.40;;;;;;5013441;28;20460;-67
2022/04/30 01:23:17;;;;;;;2.90;2.70;;;16.70;63.40;;;;;;5030973;28;20459;-67
2022/04/30 01:25:48;;;;;;;2.83;2.63;;;16.70;63.60;;;;;;5021510;28;21047;-68
2022/04/30 01:28:18;;;;;;;2.77;2.57;;;16.70;64.90;;;;;;5029612;28;20425;-67
2022/04/30 01:30:47;;;;;;;2.53;2.33;;;16.70;63.80;;;;;;5032887;28;20472;-68
2022/04/30 01:38:48;;;;;;;2.60;2.40;;;16.70;63.30;;;;;;5032731;28;20803;-67
2022/04/30 01:41:16;;;;;;;2.90;2.70;;;16.70;63.50;;;;;;5025439;28;20526;-67
2022/04/30 01:43:45;;;;;;;2.50;2.30;;;16.70;63.50;;;;;;5031933;28;20462;-67
2022/04/30 01:46:14;;;;;;;2.57;2.37;;;16.60;63.60;;;;;;5031187;28;20476;-67
2022/04/30 01:48:43;;;;;;;2.97;2.77;;;16.70;63.80;;;;;;5023858;28;20449;-67
2022/04/30 01:51:13;;;;;;;2.87;2.63;;;16.70;63.60;;;;;;5017508;28;20482;-66
2022/04/30 01:53:42;;;;;;;2.77;2.57;;;16.70;64.10;;;;;;5032982;28;20473;-67
2022/04/30 01:56:11;;;;;;;3.00;2.80;;;16.60;63.70;;;;;;5022748;28;20483;-68
2022/04/30 01:58:57;;;;;;;2.50;2.30;;;16.60;63.80;;;;;;5031933;28;20798;-67
2022/04/30 02:01:26;;;;;;;2.53;2.33;;;16.60;63.60;;;;;;5031106;28;20472;-67
2022/04/30 02:03:55;;;;;;;2.50;2.23;;;16.60;63.60;;;;;;5033236;28;20830;-67
2022/04/30 02:06:23;;;;;;;2.50;2.30;;;16.60;63.70;;;;;;5031112;28;20819;-66
2022/04/30 02:08:52;;;;;;;2.43;2.23;;;16.60;63.60;;;;;;5032655;28;20447;-67
2022/04/30 02:11:22;;;;;;;3.07;2.87;;;16.60;63.60;;;;;;5027534;28;20472;-67
2022/04/30 02:13:53;;;;;;;2.40;2.20;;;16.60;63.50;;;;;;5031689;28;20420;-68
2022/04/30 02:16:23;;;;;;;2.63;2.43;;;16.60;63.50;;;;;;5031758;28;20515;-66
2022/04/30 02:18:52;;;;;;;2.00;1.90;;;16.60;63.50;;;;;;5019073;28;20433;-67
2022/04/30 02:21:21;;;;;;;2.60;2.23;;;16.60;63.60;;;;;;5022499;28;20472;-67
2022/04/30 02:23:50;;;;;;;2.87;2.67;;;16.60;63.60;;;;;;5032505;28;20438;-67
2022/04/30 02:26:19;;;;;;;2.97;2.43;;;16.60;63.70;;;;;;5024036;28;20482;-67
2022/04/30 02:28:48;;;;;;;2.43;2.23;;;16.60;63.70;;;;;;5032495;28;20431;-66
2022/04/30 02:31:23;;;;;;;2.37;2.17;;;16.60;63.90;;;;;;5031572;28;20527;-67
2022/04/30 02:33:55;;;;;;;2.00;1.90;;;16.60;63.80;;;;;;5019916;28;20815;-67
2022/04/30 02:36:25;;;;;;;2.20;2.10;;;16.60;63.80;;;;;;5020720;28;20472;-67
2022/04/30 02:38:55;;;;;;;2.60;2.40;;;16.60;63.70;;;;;;5032215;28;20424;-66
2022/04/30 02:41:23;;;;;;;1.97;1.87;;;16.60;63.80;;;;;;5023413;28;20874;-67
2022/04/30 02:43:54;;;;;;;2.03;1.93;;;16.50;63.80;;;;;;5031901;28;20412;-67
2022/04/30 02:46:22;;;;;;;3.17;2.97;;;16.60;64.00;;;;;;5031151;28;20990;-67
2022/04/30 02:48:50;;;;;;;3.00;2.80;;;16.50;63.80;;;;;;5031086;28;20413;-67
2022/04/30 02:51:18;;;;;;;2.50;2.27;;;16.50;63.90;;;;;;5017796;28;20463;-67
2022/04/30 02:53:46;;;;;;;2.50;2.20;;;16.50;63.90;;;;;;5032083;28;20446;-67
2022/04/30 02:56:14;;;;;;;3.00;2.70;;;16.50;64.10;;;;;;5020463;28;20832;-67
2022/04/30 03:01:29;;;;;;;2.40;2.20;;;16.50;64.10;;;;;;5031332;28;20498;-67
2022/04/30 03:04:13;;;;;;;2.17;1.83;;;16.50;64.20;;;;;;5027232;28;20954;-67
2022/04/30 03:06:41;;;;;;;2.37;2.17;;;16.50;64.20;;;;;;5022004;28;20535;-67
2022/04/30 03:09:09;;;;;;;2.17;1.97;;;16.50;63.90;;;;;;5031502;28;20429;-67
2022/04/30 03:11:37;;;;;;;3.27;2.27;;;16.50;63.80;;;;;;5018843;28;20530;-68
2022/04/30 03:14:05;;;;;;;2.40;2.20;;;16.50;64.20;;;;;;5031852;28;20408;-67
2022/04/30 03:22:10;;;;;;;2.40;2.20;;;16.40;64.10;;;;;;5021171;28;20440;-67
2022/04/30 03:24:39;;;;;;;2.10;1.90;;;16.50;64.20;;;;;;5028545;28;20563;-67
2022/04/30 03:27:07;;;;;;;2.63;2.43;;;16.40;64.10;;;;;;5019879;28;20459;-68
2022/04/30 03:29:35;;;;;;;2.47;2.27;;;16.40;63.90;;;;;;5030925;28;21024;-69
2022/04/30 03:32:06;;;;;;;2.33;2.00;;;16.40;64.00;;;;;;5025828;28;20456;-68
2022/04/30 03:34:34;;;;;;;2.30;2.20;;;16.40;65.20;;;;;;5021359;28;20487;-68
2022/04/30 03:37:04;;;;;;;2.33;1.97;;;16.40;65.40;;;;;;5017890;28;20429;-68
2022/04/30 03:39:32;;;;;;;2.47;2.20;;;16.40;64.20;;;;;;5029706;28;21027;-67
2022/04/30 03:42:01;;;;;;;2.37;2.17;;;16.40;64.20;;;;;;5016729;28;20926;-67
2022/04/30 03:44:29;;;;;;;2.20;2.00;;;16.40;64.10;;;;;;5029565;28;20505;-67
2022/04/30 03:46:57;;;;;;;2.03;1.93;;;16.40;63.90;;;;;;5031182;28;20440;-66
2022/04/30 03:49:27;;;;;;;2.33;2.13;;;16.40;64.10;;;;;;5012875;28;20445;-67
2022/04/30 03:51:55;;;;;;;2.47;2.27;;;16.40;64.00;;;;;;5019019;28;20881;-67
2022/04/30 03:54:23;;;;;;;2.40;2.20;;;16.40;63.80;;;;;;5031234;28;20456;-67
2022/04/30 03:56:51;;;;;;;2.80;1.80;;;16.40;64.00;;;;;;5018582;28;20444;-67
2022/04/30 03:59:19;;;;;;;3.37;2.20;;;16.40;64.20;;;;;;5030737;28;20437;-66
2022/04/30 04:01:47;;;;;;;2.10;2.00;;;16.40;64.20;;;;;;5031287;28;20440;-67
2022/04/30 04:04:15;;;;;;;2.40;2.20;;;16.40;64.30;;;;;;5026277;28;20500;-67
2022/04/30 04:06:45;;;;;;;1.73;1.60;;;16.30;64.10;;;;;;5016632;28;20440;-67
2022/04/30 04:09:13;;;;;;;2.20;2.10;;;16.30;64.10;;;;;;5034943;28;20432;-67
2022/04/30 04:11:41;;;;;;;3.17;2.70;;;16.30;64.00;;;;;;5026816;28;20852;-68
2022/04/30 04:19:43;;;;;;;2.80;2.33;;;16.30;64.20;;;;;;5025414;28;20531;-68
2022/04/30 04:22:12;;;;;;;2.23;2.03;;;16.30;64.10;;;;;;5028447;28;20487;-67
2022/04/30 04:27:25;;;;;;;2.20;2.00;;;16.30;64.10;;;;;;5029764;28;20458;-67
2022/04/30 04:29:54;;;;;;;3.00;2.70;;;16.30;64.00;;;;;;5031389;28;20471;-67
2022/04/30 04:32:24;;;;;;;2.30;2.10;;;16.30;64.10;;;;;;5025002;28;20894;-67
2022/04/30 04:34:52;;;;;;;2.40;2.20;;;16.30;64.20;;;;;;5014295;28;20457;-67
2022/04/30 04:37:22;;;;;;;2.30;2.10;;;16.30;64.20;;;;;;5027422;28;20482;-66
2022/04/30 04:39:50;;;;;;;2.90;2.53;;;16.30;64.10;;;;;;5030101;28;21067;-68
2022/04/30 04:42:20;;;;;;;2.63;2.43;;;16.30;64.20;;;;;;5032087;28;20497;-66
2022/04/30 04:44:48;;;;;;;2.17;2.07;;;16.30;63.90;;;;;;5033917;28;20889;-67
2022/04/30 04:47:19;;;;;;;2.27;2.17;;;16.20;64.00;;;;;;5033897;28;20486;-66
2022/04/30 04:49:48;;;;;;;2.67;2.20;;;16.20;64.00;;;;;;5014750;28;20465;-67
2022/04/30 04:52:16;;;;;;;2.90;2.70;;;16.20;64.10;;;;;;5024526;28;20468;-67
2022/04/30 04:54:46;;;;;;;2.07;1.97;;;16.20;64.10;;;;;;5030696;28;20529;-68
2022/04/30 04:57:15;;;;;;;1.93;1.73;;;16.20;64.20;;;;;;5023608;28;20567;-67
2022/04/30 04:59:43;;;;;;;2.30;2.10;;;16.20;64.20;;;;;;5033520;28;20509;-67
2022/04/30 05:02:11;;;;;;;2.47;2.30;;;16.20;64.20;;;;;;5032460;28;20949;-68
2022/04/30 05:04:39;;;;;;;2.50;2.13;;;16.20;64.20;;;;;;5022979;28;20453;-68
2022/04/30 05:07:08;;;;;;;3.00;2.30;;;16.20;65.30;;;;;;5020959;28;20961;-66
2022/04/30 05:09:36;;;;;;;2.67;2.47;;;16.20;64.20;;;;;;5031704;28;20460;-67
2022/04/30 05:12:08;;;;;;;2.50;2.30;;;16.20;64.10;;;;;;5019801;28;20869;-67
2022/04/30 05:14:36;;;;;;;2.30;2.10;;;16.20;64.00;;;;;;5033171;28;20514;-66
2022/04/30 05:17:06;;;;;;;2.27;2.10;;;16.20;64.00;;;;;;5017725;28;20433;-66
2022/04/30 05:19:35;;;;;;;2.60;2.33;;;16.20;64.10;;;;;;5028264;28;20510;-68
2022/04/30 05:22:03;;;;;;;2.10;2.00;;;16.20;64.10;;;;;;5033761;28;20416;-67
2022/04/30 05:24:32;;;;;;;1.80;1.70;;;16.20;64.20;;;;;;5031455;28;20452;-67
2022/04/30 05:27:00;;;;;;;2.50;2.30;;;16.20;64.30;;;;;;5013752;28;20426;-66
2022/04/30 05:29:30;;;;;;;2.33;2.13;;;16.20;64.10;;;;;;5030034;28;21563;-67
2022/04/30 05:31:58;;;;;;;2.47;2.27;;;16.20;64.20;;;;;;5033561;28;20510;-67
2022/04/30 05:34:27;;;;;;;2.63;2.43;;;16.20;64.10;;;;;;5031022;28;20529;-67
2022/04/30 05:36:55;;;;;;;1.80;1.63;;;16.10;64.00;;;;;;5013927;28;20421;-68
2022/04/30 05:39:23;;;;;;;2.40;2.30;;;16.10;64.00;;;;;;5027697;28;20440;-67
2022/04/30 05:41:51;;;;;;;2.10;1.70;;;16.10;64.10;;;;;;5020268;28;20436;-67
2022/04/30 05:44:19;;;;;;;2.50;2.30;;;16.10;64.20;;;;;;5032491;28;20456;-66
2022/04/30 05:46:50;;;;;;;2.40;2.20;;;16.10;64.10;;;;;;5028186;28;20425;-66
2022/04/30 05:49:18;;;;;;;2.33;2.13;;;16.10;64.10;;;;;;5024153;28;20475;-67
2022/04/30 05:51:46;;;;;;;1.70;1.60;;;16.20;64.20;;;;;;5033042;28;20452;-67
2022/04/30 05:54:14;;;;;;;2.53;2.30;;;16.10;64.20;;;;;;5032612;28;20424;-65
2022/04/30 05:56:42;;;;;;;2.50;2.30;;;16.10;64.10;;;;;;5030604;28;20782;-66
2022/04/30 05:59:13;;;;;;;2.20;2.00;;;16.10;64.00;;;;;;5033079;28;20922;-67
2022/04/30 06:01:41;;;;;;;2.00;1.90;;;16.10;63.90;;;;;;5032748;28;20520;-66
2022/04/30 06:04:10;;;;;;;2.03;1.93;;;16.10;63.90;;;;;;5016248;28;20944;-67
2022/04/30 06:06:41;;;;;;;2.20;2.00;;;16.10;64.00;;;;;;5030749;28;20542;-67
2022/04/30 06:09:09;;;;;;;2.77;2.50;;;16.10;63.80;;;;;;5033028;28;20845;-66
2022/04/30 06:11:38;;;;;;;2.20;2.00;;;16.10;63.60;;;;;;5031516;28;20472;-67
2022/04/30 06:14:06;;;;;;;2.43;2.27;;;16.10;63.50;;;;;;5032214;28;20498;-66
2022/04/30 06:16:34;;;;;;;2.27;2.07;;;16.10;63.50;;;;;;5030266;28;20559;-68
2022/04/30 06:19:02;;;;;;;2.90;2.50;;;16.10;63.70;;;;;;5024477;28;20536;-67
2022/04/30 06:21:43;;;;;;;2.20;2.00;;;16.10;63.80;;;;;;5030973;28;20957;-67
2022/04/30 06:24:11;;;;;;;2.20;2.00;;;16.10;63.60;;;;;;5031074;28;20431;-66
2022/04/30 06:26:39;;;;;;;2.80;1.83;;;16.10;63.70;;;;;;5013933;28;20473;-67
2022/04/30 06:29:07;;;;;;;2.30;2.10;;;16.10;63.60;;;;;;5027012;28;20440;-65
2022/04/30 06:31:35;;;;;;;2.33;2.13;;;16.00;63.60;;;;;;5031804;28;20873;-67
2022/04/30 06:34:04;;;;;;;2.17;1.97;;;16.10;63.50;;;;;;5019931;28;20471;-65
2022/04/30 06:36:32;;;;;;;2.10;1.90;;;16.10;63.60;;;;;;5012091;28;20476;-67
2022/04/30 06:39:01;;;;;;;2.60;2.40;;;16.00;63.60;;;;;;5025267;28;20436;-66
2022/04/30 06:41:29;;;;;;;1.97;1.77;;;16.00;63.00;;;;;;5029770;28;20530;-66
2022/04/30 06:43:58;;;;;;;3.07;1.93;;;16.00;63.00;;;;;;5031577;28;20432;-65
2022/04/30 06:46:26;;;;;;;3.33;2.07;;;16.00;63.20;;;;;;5031494;28;20529;-65
2022/04/30 06:48:54;;;;;;;2.73;2.53;;;16.00;63.00;;;;;;5020231;28;20973;-67
2022/04/30 06:51:22;;;;;;;2.73;2.53;;;16.00;63.00;;;;;;5021941;28;20472;-66
2022/04/30 06:59:22;;;;;;;2.40;2.20;;;16.00;62.60;;;;;;5018016;28;20489;-68
2022/04/30 07:01:57;;;;;;;2.93;2.50;;;16.00;63.10;;;;;;5031635;28;20424;-68
2022/04/30 07:04:25;;;;;;;2.50;2.20;;;16.00;63.20;;;;;;5026926;28;20510;-67
2022/04/30 07:06:53;;;;;;;2.17;2.03;;;16.00;63.30;;;;;;5031222;28;20437;-67
2022/04/30 07:09:21;;;;;;;2.60;2.40;;;16.00;63.30;;;;;;5031879;28;20427;-67
2022/04/30 07:11:51;;;;;;;2.50;2.30;;;16.00;63.40;;;;;;5022475;28;20505;-67
2022/04/30 07:14:19;;;;;;;2.67;2.47;;;16.00;63.40;;;;;;5031466;28;20452;-67
2022/04/30 07:16:47;;;;;;;5.63;3.13;;;15.90;63.40;;;;;;5031925;28;20432;-67
2022/04/30 07:19:15;;;;;;;2.53;2.33;;;16.00;63.50;;;;;;5016149;28;20460;-67
2022/04/30 07:21:43;;;;;;;2.67;2.47;;;16.00;63.60;;;;;;5031350;28;20471;-66
2022/04/30 07:24:11;;;;;;;2.50;2.30;;;15.90;63.50;;;;;;5029941;28;20489;-67
2022/04/30 07:26:39;;;;;;;3.23;2.90;;;15.90;63.50;;;;;;5023754;28;20479;-67
2022/04/30 07:29:09;;;;;;;2.10;2.00;;;16.00;63.40;;;;;;5030823;28;20440;-67
2022/04/30 07:31:37;;;;;;;2.97;2.77;;;16.00;63.30;;;;;;5030260;28;20452;-67
2022/04/30 07:34:05;;;;;;;5.03;3.17;;;15.90;63.20;;;;;;5026996;28;20548;-67
2022/04/30 07:36:33;;;;;;;3.70;2.90;;;15.90;63.30;;;;;;5011535;28;20457;-67
2022/04/30 07:39:01;;;;;;;2.60;2.40;;;15.90;63.30;;;;;;5020417;28;20491;-65
2022/04/30 07:41:30;;;;;;;8.70;4.87;;;15.90;63.30;;;;;;5024185;28;20475;-67
2022/04/30 07:43:59;;;;;;;3.37;3.07;;;15.90;62.50;;;;;;5035210;28;20535;-67
2022/04/30 07:46:29;;;;;;;2.97;2.77;;;16.00;62.40;;;;;;5035019;28;20452;-67
2022/04/30 07:48:57;;;;;;;4.83;3.27;;;15.90;62.60;;;;;;5033083;28;20486;-68
2022/04/30 07:51:34;;;;;;;4.73;2.53;;;15.90;62.40;;;;;;5030286;28;20877;-67
2022/04/30 07:54:07;;;;;;;3.50;2.53;;;15.90;62.30;;;;;;5034967;28;20845;-68
2022/04/30 07:56:36;;;;;;;3.03;2.73;;;15.90;62.40;;;;;;5025224;28;20881;-68
2022/04/30 07:59:05;;;;;;;2.87;2.67;;;15.90;62.40;;;;;;5035213;28;20467;-66
2022/04/30 08:01:34;;;;;;;3.50;1.97;;;15.90;62.20;;;;;;5034889;28;20456;-65
2022/04/30 08:04:02;;;;;;;2.90;2.60;;;15.90;61.80;;;;;;5020737;28;20437;-67
2022/04/30 08:06:31;;;;;;;2.67;2.47;;;16.00;61.70;;;;;;5014948;28;20552;-67
2022/04/30 08:08:59;;;;;;;3.37;3.10;;;15.90;61.80;;;;;;5015467;28;20429;-66
2022/04/30 08:11:27;;;;;;;2.87;2.67;;;15.90;61.60;;;;;;5014717;28;20468;-68
2022/04/30 08:13:55;;;;;;;4.20;2.97;;;15.90;61.60;;;;;;5016877;28;20449;-68
2022/04/30 08:16:28;;;;;;;3.30;3.00;;;15.90;61.90;;;;;;5033604;28;20534;-67
2022/04/30 08:18:58;;;;;;;2.80;2.60;;;15.90;61.90;;;;;;5030493;28;20437;-68
2022/04/30 08:21:26;;;;;;;3.90;2.80;;;15.90;61.90;;;;;;5017444;28;20476;-67
2022/04/30 08:23:54;;;;;;;3.60;2.40;;;15.90;62.20;;;;;;5034662;28;20852;-67
2022/04/30 08:26:23;;;;;;;2.40;2.30;;;15.90;62.30;;;;;;5017721;28;20476;-68
2022/04/30 08:28:51;;;;;;;2.17;2.00;;;15.90;62.20;;;;;;5028087;28;20549;-68
2022/04/30 08:31:19;;;;;;;2.20;2.00;;;15.90;62.40;;;;;;5031985;28;20476;-67
2022/04/30 08:33:47;;;;;;;2.73;2.53;;;15.90;62.50;;;;;;5029321;28;20489;-68
2022/04/30 08:36:17;;;;;;;2.53;2.33;;;15.90;62.30;;;;;;5013065;28;20464;-67
2022/04/30 08:38:48;;;;;;;2.80;2.50;;;15.90;62.40;;;;;;5019001;28;20442;-66
2022/04/30 08:41:16;;;;;;;2.50;2.30;;;15.90;62.40;;;;;;5029482;28;20533;-67
2022/04/30 08:43:48;;;;;;;2.83;2.63;;;15.90;62.40;;;;;;5033679;28;20526;-66
2022/04/30 08:46:19;;;;;;;2.30;2.10;;;15.90;62.50;;;;;;5025130;28;20460;-66
2022/04/30 08:48:48;;;;;;;2.70;2.50;;;15.90;62.30;;;;;;5033310;28;20436;-67
2022/04/30 08:51:18;;;;;;;2.80;2.60;;;15.90;62.30;;;;;;5031670;28;20522;-67
2022/04/30 08:53:46;;;;;;;3.00;2.50;;;15.90;62.40;;;;;;5033345;28;20643;-68
2022/04/30 08:56:14;;;;;;;2.37;2.17;;;15.90;62.40;;;;;;5019699;28;20562;-66
2022/04/30 08:58:43;;;;;;;2.70;2.50;;;15.90;62.40;;;;;;5034348;28;20420;-68
2022/04/30 09:01:11;;;;;;;2.27;2.10;;;15.90;62.30;;;;;;5033133;28;20510;-74
2022/04/30 09:03:39;;;;;;;2.70;2.50;;;15.90;62.40;;;;;;5027547;28;20866;-73
2022/04/30 09:06:07;;;;;;;2.50;2.33;;;15.90;62.40;;;;;;5017133;28;20483;-73
2022/04/30 09:08:37;;;;;;;2.50;2.23;;;15.90;62.40;;;;;;5033900;28;20455;-72
2022/04/30 09:11:07;;;;;;;3.20;2.90;;;15.90;62.40;;;;;;5030694;28;20472;-74
2022/04/30 09:13:43;;;;;;;4.40;2.80;;;15.90;62.30;;;;;;5033733;28;20881;-73
2022/04/30 09:16:21;;;;;;;2.73;2.53;;;15.90;62.20;;;;;;5028336;28;20997;-74
2022/04/30 09:18:51;;;;;;;6.47;3.90;;;15.90;63.60;;;;;;5024493;28;20814;-72
2022/04/30 09:21:19;;;;;;;3.67;3.37;;;15.90;62.40;;;;;;5029679;28;20476;-72
2022/04/30 09:23:49;;;;;;;4.37;3.20;;;15.90;61.00;;;;;;5023901;28;20930;-75
2022/04/30 09:26:17;;;;;;;3.93;3.53;;;15.80;61.30;;;;;;5025332;28;21002;-74
2022/04/30 09:28:48;;;;;;;12.97;5.17;;;15.80;61.30;;;;;;5030033;28;20929;-73
2022/04/30 09:31:18;;;;;;;9.77;4.83;;;15.90;60.80;;;;;;5029559;28;20496;-73
2022/04/30 09:33:56;;;;;;;3.87;3.57;;;15.90;60.00;;;;;;5028107;28;20958;-74
2022/04/30 09:39:16;;;;;;;4.77;4.20;;;15.90;60.70;;;;;;5030194;28;20885;-74
2022/04/30 09:41:45;;;;;;;5.50;4.07;;;15.90;60.60;;;;;;5027882;28;20869;-73
2022/04/30 09:44:13;;;;;;;4.00;3.60;;;15.80;60.80;;;;;;5024871;28;20477;-74
2022/04/30 09:46:42;;;;;;;3.80;3.50;;;15.80;61.30;;;;;;5027405;28;20460;-74
2022/04/30 09:54:45;;;;;;;3.50;3.27;;;15.80;61.30;;;;;;5022910;28;20990;-74
2022/04/30 09:57:15;;;;;;;3.37;3.07;;;15.80;61.30;;;;;;5027301;28;20548;-74
2022/04/30 09:59:44;;;;;;;3.97;3.60;;;15.80;61.30;;;;;;5031753;28;20513;-67
2022/04/30 10:02:15;;;;;;;3.60;3.30;;;15.80;61.30;;;;;;5028308;28;20440;-65
2022/04/30 10:04:45;;;;;;;4.67;3.67;;;15.80;61.40;;;;;;5019696;28;20465;-67
2022/04/30 10:07:17;;;;;;;4.17;3.87;;;15.80;61.40;;;;;;5028202;28;20447;-67
2022/04/30 10:09:54;;;;;;;3.80;3.50;;;15.80;61.50;;;;;;5014673;28;20518;-66
2022/04/30 10:12:31;;;;;;;3.50;3.20;;;15.80;61.50;;;;;;5023499;28;20507;-66
2022/04/30 10:15:12;;;;;;;4.23;3.80;;;15.80;61.50;;;;;;5031669;28;20877;-68
2022/04/30 10:17:42;;;;;;;5.63;3.50;;;15.80;61.50;;;;;;5026437;28;20459;-68
2022/04/30 10:20:16;;;;;;;4.67;3.47;;;15.80;61.50;;;;;;5027877;28;20488;-67
2022/04/30 10:22:51;;;;;;;4.20;3.43;;;15.80;61.50;;;;;;5030941;28;20436;-67
2022/04/30 10:25:32;;;;;;;3.90;3.60;;;15.80;61.60;;;;;;5017886;28;20472;-68
2022/04/30 10:28:04;;;;;;;5.30;4.10;;;15.80;61.50;;;;;;5030923;28;20436;-67
2022/04/30 10:30:34;;;;;;;4.27;3.87;;;15.80;61.00;;;;;;5027396;28;20476;-67
2022/04/30 10:33:03;;;;;;;3.80;3.50;;;15.90;61.00;;;;;;5031682;28;20436;-68
2022/04/30 10:35:33;;;;;;;4.37;3.30;;;15.80;61.30;;;;;;5030194;28;20904;-67
2022/04/30 10:38:12;;;;;;;4.20;3.73;;;15.80;61.40;;;;;;5023278;28;20466;-66
2022/04/30 10:40:45;;;;;;;3.87;3.53;;;15.80;61.30;;;;;;5029080;28;20467;-68
2022/04/30 10:43:20;;;;;;;4.17;3.77;;;15.80;61.30;;;;;;5028873;28;20530;-68
2022/04/30 10:45:48;;;;;;;3.90;3.60;;;15.80;61.50;;;;;;5026385;28;20471;-68
2022/04/30 10:48:19;;;;;;;4.00;3.70;;;15.80;61.50;;;;;;5029473;28;20436;-67
2022/04/30 10:50:51;;;;;;;4.37;3.97;;;15.80;61.50;;;;;;5028959;28;20472;-68
2022/04/30 10:53:23;;;;;;;3.93;3.63;;;15.80;61.60;;;;;;5030085;28;20494;-68
2022/04/30 10:55:54;;;;;;;4.23;3.83;;;15.80;61.40;;;;;;5024206;28;20961;-68
2022/04/30 10:58:23;;;;;;;3.93;3.63;;;15.80;61.30;;;;;;5027215;28;20448;-67
2022/04/30 11:00:51;;;;;;;4.60;4.30;;;15.80;61.40;;;;;;5027191;28;20537;-67
2022/04/30 11:03:26;;;;;;;4.10;3.70;;;15.80;61.00;;;;;;5028916;28;20436;-67
2022/04/30 11:05:55;;;;;;;3.90;3.70;;;15.80;61.20;;;;;;5018677;28;20475;-67
2022/04/30 11:08:24;;;;;;;3.80;3.53;;;15.80;61.20;;;;;;5029997;28;20849;-68
2022/04/30 11:10:55;;;;;;;4.03;3.60;;;15.80;61.30;;;;;;5027010;28;20883;-67
2022/04/30 11:13:24;;;;;;;4.00;3.67;;;15.80;61.40;;;;;;5024291;28;20449;-68
2022/04/30 11:15:52;;;;;;;3.80;3.50;;;15.80;61.30;;;;;;5026517;28;20998;-68
2022/04/30 11:18:20;;;;;;;4.10;3.80;;;15.80;61.30;;;;;;5030983;28;20440;-68
2022/04/30 11:20:48;;;;;;;3.60;3.40;;;15.80;62.50;;;;;;5029565;28;20534;-67
2022/04/30 11:23:24;;;;;;;3.90;3.60;;;15.80;61.10;;;;;;5030567;28;20444;-66
2022/04/30 11:25:56;;;;;;;3.63;3.40;;;15.80;61.20;;;;;;5023411;28;20541;-67
2022/04/30 11:28:29;;;;;;;4.10;3.80;;;15.80;61.10;;;;;;5028697;28;20486;-67
2022/04/30 11:31:00;;;;;;;3.57;3.27;;;15.80;61.40;;;;;;5027766;28;21436;-69
2022/04/30 11:33:36;;;;;;;3.77;3.47;;;15.80;61.40;;;;;;5027489;28;20974;-67
2022/04/30 11:36:05;;;;;;;3.57;3.27;;;15.80;61.40;;;;;;5025113;28;20476;-68
2022/04/30 11:38:34;;;;;;;3.50;3.30;;;15.80;61.40;;;;;;5029130;28;20451;-65
2022/04/30 11:41:07;;;;;;;3.40;3.10;;;15.80;61.40;;;;;;5024721;28;21109;-68
2022/04/30 11:43:36;;;;;;;3.10;2.90;;;15.80;61.50;;;;;;5023488;28;20416;-66
2022/04/30 11:46:04;;;;;;;4.17;3.50;;;15.80;61.50;;;;;;5027887;28;20476;-67
2022/04/30 11:48:38;;;;;;;3.90;3.60;;;15.80;61.50;;;;;;5022082;28;20644;-68
2022/04/30 11:51:11;;;;;;;3.70;3.40;;;15.80;61.50;;;;;;5024028;28;20496;-67
2022/04/30 11:53:40;;;;;;;4.83;3.30;;;15.80;61.60;;;;;;5026296;28;20543;-66
2022/04/30 11:56:10;;;;;;;3.43;3.13;;;15.80;60.60;;;;;;5023950;28;20476;-68
2022/04/30 11:58:42;;;;;;;3.70;3.40;;;15.80;60.80;;;;;;5024682;28;20493;-67
2022/04/30 12:01:24;;;;;;;3.90;3.60;;;15.80;60.90;;;;;;5027400;28;20472;-68
2022/04/30 12:03:58;;;;;;;3.90;3.37;;;15.80;61.00;;;;;;5027755;28;20988;-67
2022/04/30 12:06:28;;;;;;;3.70;3.40;;;15.80;60.90;;;;;;5016066;28;20465;-68
2022/04/30 12:08:56;;;;;;;3.57;3.27;;;15.80;61.10;;;;;;5027013;28;20489;-68
2022/04/30 12:11:27;;;;;;;3.53;2.97;;;15.80;61.10;;;;;;5014354;28;20986;-68
2022/04/30 12:14:00;;;;;;;4.23;3.83;;;15.80;61.10;;;;;;5018543;28;20412;-68
2022/04/30 12:16:36;;;;;;;3.37;3.10;;;15.80;61.30;;;;;;5030760;28;20476;-68
2022/04/30 12:24:44;;;;;;;4.60;3.40;;;15.80;61.30;;;;;;5010252;28;20460;-68
2022/04/30 12:27:23;;;;;;;3.87;3.40;;;15.80;61.30;;;;;;5027605;28;20428;-68
2022/04/30 12:30:01;;;;;;;3.47;3.17;;;15.80;61.30;;;;;;5034248;28;20494;-67
2022/04/30 12:32:29;;;;;;;3.60;3.30;;;15.80;61.30;;;;;;5034839;28;20430;-67
2022/04/30 12:34:58;;;;;;;3.50;3.00;;;15.80;61.40;;;;;;5021768;28;20894;-68
2022/04/30 12:37:34;;;;;;;3.07;2.87;;;15.80;61.00;;;;;;5030264;28;20436;-67
2022/04/30 12:40:10;;;;;;;3.20;3.00;;;15.80;61.30;;;;;;5014338;28;20572;-67
2022/04/30 12:42:41;;;;;;;3.90;3.60;;;15.80;61.30;;;;;;5025752;28;20793;-68
2022/04/30 12:45:09;;;;;;;3.60;3.33;;;15.80;61.20;;;;;;5025402;28;20464;-68
2022/04/30 12:47:39;;;;;;;3.57;3.27;;;15.80;61.10;;;;;;5025975;28;20540;-67
2022/04/30 12:50:08;;;;;;;3.10;2.90;;;15.80;61.00;;;;;;5019812;28;20476;-66
2022/04/30 12:52:36;;;;;;;4.70;3.50;;;15.80;61.20;;;;;;5033587;28;20444;-67
2022/04/30 12:55:05;;;;;;;4.47;3.63;;;15.80;61.30;;;;;;5032050;28;20475;-68
2022/04/30 12:57:33;;;;;;;3.40;3.17;;;15.90;61.40;;;;;;5033790;28;20435;-67
2022/04/30 13:00:04;;;;;;;3.57;3.27;;;15.90;61.40;;;;;;5032966;28;20479;-68
2022/04/30 13:02:32;;;;;;;3.20;3.00;;;15.90;61.30;;;;;;5029714;28;20432;-67
2022/04/30 13:05:00;;;;;;;3.10;2.90;;;15.90;61.40;;;;;;5030483;28;20467;-67
2022/04/30 13:07:28;;;;;;;3.23;3.03;;;15.90;61.30;;;;;;5027603;28;20876;-67
2022/04/30 13:15:30;;;;;;;3.67;3.20;;;15.90;61.20;;;;;;5026230;28;20468;-68
2022/04/30 13:17:58;;;;;;;3.23;3.03;;;15.90;60.90;;;;;;5031047;28;20507;-67
2022/04/30 13:20:33;;;;;;;3.60;3.30;;;15.90;61.00;;;;;;5024920;28;20459;-65
2022/04/30 13:23:01;;;;;;;3.03;2.73;;;15.90;61.20;;;;;;5032869;28;20436;-68
2022/04/30 13:25:30;;;;;;;3.57;3.37;;;15.90;61.00;;;;;;5031310;28;20479;-67
2022/04/30 13:27:59;;;;;;;3.10;2.90;;;15.90;61.00;;;;;;5020063;28;20468;-67
2022/04/30 13:30:30;;;;;;;2.60;2.40;;;15.90;61.10;;;;;;5027055;28;20890;-67
2022/04/30 13:32:58;;;;;;;2.77;2.60;;;15.90;61.10;;;;;;5030560;28;20506;-68
2022/04/30 13:35:26;;;;;;;3.20;3.00;;;15.90;60.90;;;;;;5016486;28;20465;-68
2022/04/30 13:37:54;;;;;;;2.90;2.67;;;15.90;60.90;;;;;;5024473;28;20919;-66
2022/04/30 13:40:23;;;;;;;3.57;3.37;;;15.90;60.70;;;;;;5030124;28;20478;-67
2022/04/30 13:42:53;;;;;;;3.03;2.67;;;15.90;60.70;;;;;;5024171;28;20810;-67
2022/04/30 13:45:22;;;;;;;2.90;2.70;;;15.90;60.70;;;;;;5029135;28;20475;-69
2022/04/30 13:47:54;;;;;;;4.43;2.73;;;16.00;60.80;;;;;;5020593;28;20429;-68